createdAt,value
2023-06-11T00:00:52.282Z,22.75
2023-06-11T00:01:52.258Z,22.71
2023-06-11T00:02:52.421Z,22.70
2023-06-11T00:03:52.326Z,22.70
2023-06-11T00:04:52.470Z,22.68
2023-06-11T00:05:52.306Z,22.68
2023-06-11T00:06:52.277Z,22.67
2023-06-11T00:07:52.297Z,22.67
2023-06-11T00:08:52.277Z,22.66
2023-06-11T00:09:52.314Z,22.64
2023-06-11T00:10:52.306Z,22.67
2023-06-11T00:11:52.291Z,22.64
2023-06-11T00:12:52.327Z,22.64
2023-06-11T00:13:52.298Z,22.61
2023-06-11T00:14:52.327Z,22.63
2023-06-11T00:15:52.407Z,22.60
2023-06-11T00:16:52.361Z,22.60
2023-06-11T00:17:52.424Z,22.61
2023-06-11T00:18:52.380Z,22.61
2023-06-11T00:19:52.412Z,22.61
2023-06-11T00:20:52.406Z,22.60
2023-06-11T00:21:52.420Z,22.57
2023-06-11T00:22:52.421Z,22.60
2023-06-11T00:23:52.466Z,22.59
2023-06-11T00:24:52.464Z,22.59
2023-06-11T00:25:52.509Z,22.59
2023-06-11T00:26:52.461Z,22.60
2023-06-11T00:27:52.506Z,22.60
2023-06-11T00:28:52.551Z,22.61
2023-06-11T00:29:52.532Z,22.59
2023-06-11T00:30:52.544Z,22.59
2023-06-11T00:31:52.595Z,22.59
2023-06-11T00:32:52.623Z,22.59
2023-06-11T00:33:52.558Z,22.56
2023-06-11T00:34:52.574Z,22.56
2023-06-11T00:35:52.591Z,22.54
2023-06-11T00:36:52.585Z,22.54
2023-06-11T00:37:52.599Z,22.53
2023-06-11T00:38:52.612Z,22.51
2023-06-11T00:39:52.655Z,22.49
2023-06-11T00:40:52.644Z,22.49
2023-06-11T00:41:52.677Z,22.47
2023-06-11T00:42:52.676Z,22.46
2023-06-11T00:43:52.680Z,22.44
2023-06-11T00:44:52.698Z,22.44
2023-06-11T00:45:52.969Z,22.44
2023-06-11T00:46:52.716Z,22.46
2023-06-11T00:47:52.871Z,22.44
2023-06-11T00:48:52.784Z,22.43
2023-06-11T00:49:52.778Z,22.43
2023-06-11T00:50:52.870Z,22.43
2023-06-11T00:51:52.783Z,22.43
2023-06-11T00:52:52.788Z,22.42
2023-06-11T00:53:52.814Z,22.42
2023-06-11T00:54:52.804Z,22.40
2023-06-11T00:55:52.884Z,22.40
2023-06-11T00:56:52.886Z,22.40
2023-06-11T00:57:52.878Z,22.42
2023-06-11T00:58:52.922Z,22.42
2023-06-11T00:59:52.897Z,22.40
2023-06-11T01:00:52.974Z,22.39
2023-06-11T01:01:52.954Z,22.39
2023-06-11T01:02:53.019Z,22.39
2023-06-11T01:03:53.054Z,22.36
2023-06-11T01:04:53.054Z,22.35
2023-06-11T01:05:53.100Z,22.33
2023-06-11T01:06:53.046Z,22.27
2023-06-11T01:07:53.115Z,22.29
2023-06-11T01:08:53.145Z,22.29
2023-06-11T01:09:53.193Z,22.27
2023-06-11T01:10:53.300Z,22.26
2023-06-11T01:11:53.227Z,22.23
2023-06-11T01:12:53.287Z,22.24
2023-06-11T01:13:53.344Z,22.21
2023-06-11T01:14:53.359Z,22.21
2023-06-11T01:15:53.472Z,22.19
2023-06-11T01:16:53.643Z,22.19
2023-06-11T01:17:53.554Z,22.17
2023-06-11T01:18:53.545Z,22.15
2023-06-11T01:19:53.666Z,22.16
2023-06-11T01:20:53.643Z,22.13
2023-06-11T01:21:53.748Z,22.13
2023-06-11T01:22:53.758Z,22.12
2023-06-11T01:23:53.888Z,22.10
2023-06-11T01:24:53.841Z,22.09
2023-06-11T01:25:53.875Z,22.07
2023-06-11T01:26:53.943Z,22.07
2023-06-11T01:27:53.989Z,22.07
2023-06-11T01:28:54.049Z,22.06
2023-06-11T01:29:54.104Z,22.05
2023-06-11T01:30:54.260Z,22.06
2023-06-11T01:31:54.261Z,22.06
2023-06-11T01:32:54.430Z,22.03
2023-06-11T01:33:54.351Z,22.05
2023-06-11T01:34:54.400Z,22.02
2023-06-11T01:35:54.429Z,22.05
2023-06-11T01:36:54.502Z,22.00
2023-06-11T01:37:54.531Z,21.99
2023-06-11T01:38:54.605Z,21.99
2023-06-11T01:39:54.799Z,21.99
2023-06-11T01:40:54.748Z,21.97
2023-06-11T01:41:54.815Z,21.96
2023-06-11T01:42:54.832Z,21.96
2023-06-11T01:43:54.953Z,21.93
2023-06-11T01:44:54.942Z,21.96
2023-06-11T01:45:54.985Z,21.97
2023-06-11T01:46:55.100Z,21.97
2023-06-11T01:47:55.140Z,21.95
2023-06-11T01:48:55.155Z,21.97
2023-06-11T01:49:55.182Z,21.99
2023-06-11T01:50:55.292Z,21.96
2023-06-11T01:51:55.357Z,21.99
2023-06-11T01:52:55.400Z,21.97
2023-06-11T01:53:55.463Z,21.97
2023-06-11T01:54:55.493Z,21.99
2023-06-11T01:55:55.592Z,21.96
2023-06-11T01:56:55.650Z,21.99
2023-06-11T01:57:55.670Z,21.97
2023-06-11T01:58:55.728Z,21.97
2023-06-11T01:59:55.829Z,21.99
2023-06-11T02:00:55.911Z,22.00
2023-06-11T02:01:56.045Z,21.99
2023-06-11T02:02:56.064Z,21.99
2023-06-11T02:03:56.093Z,21.99
2023-06-11T02:04:56.105Z,22.00
2023-06-11T02:05:56.153Z,21.99
2023-06-11T02:06:56.226Z,21.99
2023-06-11T02:07:56.269Z,21.97
2023-06-11T02:08:56.309Z,21.99
2023-06-11T02:09:56.338Z,21.99
2023-06-11T02:10:56.467Z,22.00
2023-06-11T02:11:56.512Z,21.97
2023-06-11T02:12:56.603Z,22.02
2023-06-11T02:13:56.654Z,21.99
2023-06-11T02:14:56.691Z,22.03
2023-06-11T02:15:56.760Z,22.05
2023-06-11T02:16:56.914Z,22.07
2023-06-11T02:17:56.931Z,22.03
2023-06-11T02:18:56.945Z,22.06
2023-06-11T02:19:57.078Z,22.07
2023-06-11T02:20:57.086Z,22.05
2023-06-11T02:21:57.102Z,22.05
2023-06-11T02:22:57.140Z,22.06
2023-06-11T02:23:57.185Z,22.02
2023-06-11T02:24:57.219Z,22.05
2023-06-11T02:25:57.301Z,21.99
2023-06-11T02:26:57.280Z,22.00
2023-06-11T02:27:57.355Z,21.99
2023-06-11T02:28:57.397Z,21.96
2023-06-11T02:29:57.473Z,21.89
2023-06-11T02:30:57.518Z,21.85
2023-06-11T02:31:57.568Z,21.84
2023-06-11T02:32:57.631Z,21.85
2023-06-11T02:33:57.641Z,21.85
2023-06-11T02:34:57.617Z,21.88
2023-06-11T02:35:57.693Z,21.76
2023-06-11T02:36:57.763Z,21.72
2023-06-11T02:37:57.826Z,21.74
2023-06-11T02:38:57.864Z,21.72
2023-06-11T02:39:57.964Z,21.72
2023-06-11T02:40:58.033Z,21.74
2023-06-11T02:41:58.058Z,21.71
2023-06-11T02:42:58.112Z,21.68
2023-06-11T02:43:58.138Z,21.68
2023-06-11T02:44:58.153Z,21.66
2023-06-11T02:45:58.225Z,21.64
2023-06-11T02:46:58.256Z,21.68
2023-06-11T02:47:58.319Z,21.72
2023-06-11T02:48:58.296Z,21.74
2023-06-11T02:49:58.370Z,21.76
2023-06-11T02:50:58.420Z,21.79
2023-06-11T02:51:58.482Z,21.86
2023-06-11T02:52:58.551Z,21.86
2023-06-11T02:53:59.573Z,21.91
2023-06-11T02:54:58.652Z,21.91
2023-06-11T02:55:58.778Z,21.92
2023-06-11T02:56:58.805Z,21.95
2023-06-11T02:57:58.816Z,21.95
2023-06-11T02:58:58.920Z,21.96
2023-06-11T02:59:58.967Z,21.99
2023-06-11T03:00:59.009Z,22.00
2023-06-11T03:01:59.089Z,22.00
2023-06-11T03:02:59.140Z,22.05
2023-06-11T03:03:59.186Z,22.03
2023-06-11T03:04:59.258Z,22.05
2023-06-11T03:06:01.746Z,22.05
2023-06-11T03:06:59.214Z,22.06
2023-06-11T03:07:59.180Z,22.07
2023-06-11T03:08:59.198Z,22.03
2023-06-11T03:09:59.180Z,22.03
2023-06-11T03:10:59.204Z,21.97
2023-06-11T03:11:59.191Z,21.95
2023-06-11T03:12:59.174Z,21.91
2023-06-11T03:13:59.183Z,21.91
2023-06-11T03:14:59.158Z,21.93
2023-06-11T03:15:59.172Z,21.95
2023-06-11T03:16:59.138Z,22.00
2023-06-11T03:17:59.193Z,22.00
2023-06-11T03:18:59.091Z,22.02
2023-06-11T03:19:59.105Z,22.03
2023-06-11T03:20:59.210Z,22.09
2023-06-11T03:21:59.130Z,22.10
2023-06-11T03:22:59.085Z,22.12
2023-06-11T03:23:59.131Z,22.13
2023-06-11T03:24:59.090Z,22.16
2023-06-11T03:25:59.078Z,22.15
2023-06-11T03:26:59.107Z,22.15
2023-06-11T03:27:59.056Z,22.17
2023-06-11T03:28:59.032Z,22.13
2023-06-11T03:29:59.058Z,22.10
2023-06-11T03:30:59.076Z,22.12
2023-06-11T03:31:59.133Z,22.10
2023-06-11T03:32:59.080Z,22.09
2023-06-11T03:33:59.016Z,22.10
2023-06-11T03:34:59.034Z,22.07
2023-06-11T03:35:59.035Z,22.09
2023-06-11T03:36:59.045Z,22.09
2023-06-11T03:37:59.016Z,22.10
2023-06-11T03:38:58.970Z,22.06
2023-06-11T03:39:58.985Z,22.05
2023-06-11T03:40:58.987Z,22.07
2023-06-11T03:41:58.951Z,22.00
2023-06-11T03:43:00.806Z,21.92
2023-06-11T03:43:58.965Z,21.86
2023-06-11T03:44:58.935Z,21.81
2023-06-11T03:45:58.964Z,21.81
2023-06-11T03:46:58.974Z,21.81
2023-06-11T03:47:58.990Z,21.78
2023-06-11T03:48:58.998Z,21.71
2023-06-11T03:49:59.003Z,21.74
2023-06-11T03:50:59.009Z,21.74
2023-06-11T03:51:59.024Z,21.68
2023-06-11T03:52:59.073Z,21.68
2023-06-11T03:53:59.172Z,21.62
2023-06-11T03:54:59.246Z,21.64
2023-06-11T03:55:59.332Z,21.64
2023-06-11T03:56:59.304Z,21.62
2023-06-11T03:57:59.314Z,21.66
2023-06-11T03:58:59.368Z,21.66
2023-06-11T03:59:59.441Z,21.71
2023-06-11T04:00:59.455Z,21.75
2023-06-11T04:01:59.521Z,21.75
2023-06-11T04:03:00.568Z,21.81
2023-06-11T04:03:59.645Z,21.84
2023-06-11T04:04:59.603Z,21.84
2023-06-11T04:05:59.664Z,21.86
2023-06-11T04:06:59.738Z,21.88
2023-06-11T04:07:59.780Z,21.91
2023-06-11T04:08:59.811Z,21.91
2023-06-11T04:09:59.852Z,21.93
2023-06-11T04:10:59.930Z,21.96
2023-06-11T04:11:59.913Z,21.99
2023-06-11T04:12:59.984Z,21.97
2023-06-11T04:13:59.985Z,22.00
2023-06-11T04:15:00.049Z,21.99
2023-06-11T04:16:00.118Z,22.02
2023-06-11T04:17:00.163Z,22.03
2023-06-11T04:18:00.213Z,22.06
2023-06-11T04:19:00.161Z,22.07
2023-06-11T04:20:00.226Z,22.09
2023-06-11T04:21:00.240Z,22.09
2023-06-11T04:22:00.266Z,22.10
2023-06-11T04:23:00.307Z,22.10
2023-06-11T04:24:00.327Z,22.13
2023-06-11T04:25:00.319Z,22.15
2023-06-11T04:26:00.382Z,22.16
2023-06-11T04:27:00.370Z,22.17
2023-06-11T04:28:00.390Z,22.19
2023-06-11T04:29:00.391Z,22.19
2023-06-11T04:30:00.451Z,22.20
2023-06-11T04:31:00.486Z,22.23
2023-06-11T04:32:00.526Z,22.23
2023-06-11T04:33:00.639Z,22.23
2023-06-11T04:34:00.529Z,22.23
2023-06-11T04:35:00.558Z,22.26
2023-06-11T04:36:00.579Z,22.29
2023-06-11T04:37:00.614Z,22.26
2023-06-11T04:38:00.614Z,22.29
2023-06-11T04:39:00.613Z,22.30
2023-06-11T04:40:00.630Z,22.27
2023-06-11T04:41:00.654Z,22.30
2023-06-11T04:42:00.668Z,22.32
2023-06-11T04:43:00.651Z,22.32
2023-06-11T04:44:00.672Z,22.30
2023-06-11T04:45:00.655Z,22.35
2023-06-11T04:46:00.666Z,22.35
2023-06-11T04:47:00.698Z,22.33
2023-06-11T04:48:00.729Z,22.33
2023-06-11T04:49:00.669Z,22.36
2023-06-11T04:50:00.669Z,22.37
2023-06-11T04:51:00.702Z,22.40
2023-06-11T04:52:00.712Z,22.39
2023-06-11T04:53:00.719Z,22.39
2023-06-11T04:54:00.730Z,22.40
2023-06-11T04:55:00.763Z,22.40
2023-06-11T04:56:03.087Z,22.40
2023-06-11T04:57:00.747Z,22.40
2023-06-11T04:58:00.707Z,22.44
2023-06-11T04:59:00.721Z,22.43
2023-06-11T05:00:01.453Z,22.46
2023-06-11T05:01:00.712Z,22.44
2023-06-11T05:02:00.776Z,22.43
2023-06-11T05:03:00.725Z,22.47
2023-06-11T05:04:00.790Z,22.47
2023-06-11T05:05:00.737Z,22.46
2023-06-11T05:06:00.701Z,22.47
2023-06-11T05:07:00.672Z,22.50
2023-06-11T05:08:00.663Z,22.51
2023-06-11T05:09:00.633Z,22.53
2023-06-11T05:10:00.658Z,22.56
2023-06-11T05:11:00.637Z,22.54
2023-06-11T05:12:00.653Z,22.56
2023-06-11T05:13:00.606Z,22.56
2023-06-11T05:14:00.602Z,22.56
2023-06-11T05:15:00.608Z,22.54
2023-06-11T05:16:00.629Z,22.53
2023-06-11T05:17:00.697Z,22.53
2023-06-11T05:18:00.642Z,22.51
2023-06-11T05:19:00.596Z,22.51
2023-06-11T05:20:00.597Z,22.50
2023-06-11T05:21:00.604Z,22.51
2023-06-11T05:22:00.553Z,22.50
2023-06-11T05:23:00.645Z,22.50
2023-06-11T05:24:00.629Z,22.51
2023-06-11T05:25:00.613Z,22.54
2023-06-11T05:26:00.560Z,22.53
2023-06-11T05:27:00.530Z,22.59
2023-06-11T05:28:00.499Z,22.60
2023-06-11T05:29:00.517Z,22.63
2023-06-11T05:30:00.522Z,22.66
2023-06-11T05:31:00.551Z,22.63
2023-06-11T05:32:00.565Z,22.57
2023-06-11T05:33:00.596Z,22.59
2023-06-11T05:34:00.496Z,22.57
2023-06-11T05:35:00.482Z,22.54
2023-06-11T05:36:00.489Z,22.43
2023-06-11T05:37:00.481Z,22.24
2023-06-11T05:38:00.460Z,22.23
2023-06-11T05:39:00.482Z,22.20
2023-06-11T05:40:00.481Z,22.17
2023-06-11T05:41:00.504Z,22.20
2023-06-11T05:42:00.530Z,22.21
2023-06-11T05:43:00.569Z,22.27
2023-06-11T05:44:00.547Z,22.32
2023-06-11T05:45:00.548Z,22.35
2023-06-11T05:46:00.683Z,22.39
2023-06-11T05:47:00.744Z,22.42
2023-06-11T05:48:00.611Z,22.42
2023-06-11T05:49:00.603Z,22.44
2023-06-11T05:50:00.619Z,22.46
2023-06-11T05:51:00.668Z,22.50
2023-06-11T05:52:00.711Z,22.50
2023-06-11T05:53:00.772Z,22.56
2023-06-11T05:54:00.821Z,22.60
2023-06-11T05:55:00.926Z,22.66
2023-06-11T05:56:00.902Z,22.70
2023-06-11T05:57:00.974Z,22.74
2023-06-11T05:58:00.979Z,22.80
2023-06-11T05:59:01.024Z,22.84
2023-06-11T06:00:01.069Z,22.88
2023-06-11T06:01:01.141Z,22.91
2023-06-11T06:02:01.161Z,22.93
2023-06-11T06:03:01.277Z,22.95
2023-06-11T06:04:01.370Z,22.93
2023-06-11T06:05:01.360Z,22.94
2023-06-11T06:06:01.369Z,22.91
2023-06-11T06:07:01.391Z,22.93
2023-06-11T06:08:01.343Z,22.93
2023-06-11T06:09:01.350Z,22.90
2023-06-11T06:10:01.374Z,22.90
2023-06-11T06:11:01.353Z,22.91
2023-06-11T06:12:01.425Z,22.72
2023-06-11T06:13:01.426Z,22.72
2023-06-11T06:14:01.475Z,22.80
2023-06-11T06:15:01.535Z,22.80
2023-06-11T06:16:01.680Z,22.77
2023-06-11T06:17:01.617Z,22.78
2023-06-11T06:18:01.600Z,22.77
2023-06-11T06:19:01.681Z,22.81
2023-06-11T06:20:01.750Z,22.80
2023-06-11T06:21:01.793Z,22.81
2023-06-11T06:22:01.818Z,22.81
2023-06-11T06:23:01.777Z,22.86
2023-06-11T06:24:01.912Z,22.81
2023-06-11T06:25:02.260Z,22.83
2023-06-11T06:26:01.919Z,22.81
2023-06-11T06:27:01.911Z,22.80
2023-06-11T06:28:01.942Z,22.80
2023-06-11T06:29:01.950Z,22.84
2023-06-11T06:30:01.983Z,22.88
2023-06-11T06:31:02.048Z,22.90
2023-06-11T06:32:02.266Z,22.95
2023-06-11T06:33:02.135Z,22.91
2023-06-11T06:34:02.132Z,22.80
2023-06-11T06:35:02.224Z,22.78
2023-06-11T06:36:02.197Z,22.75
2023-06-11T06:37:02.192Z,22.80
2023-06-11T06:38:02.242Z,22.84
2023-06-11T06:39:02.268Z,22.83
2023-06-11T06:40:02.330Z,22.91
2023-06-11T06:41:02.358Z,22.93
2023-06-11T06:42:02.395Z,22.94
2023-06-11T06:43:02.427Z,23.00
2023-06-11T06:44:02.478Z,23.04
2023-06-11T06:45:02.471Z,23.10
2023-06-11T06:46:02.501Z,23.11
2023-06-11T06:47:02.509Z,23.02
2023-06-11T06:48:02.585Z,23.05
2023-06-11T06:49:02.616Z,23.07
2023-06-11T06:50:02.637Z,23.11
2023-06-11T06:51:03.387Z,23.15
2023-06-11T06:52:02.641Z,23.08
2023-06-11T06:53:02.705Z,23.10
2023-06-11T06:54:02.687Z,23.10
2023-06-11T06:55:02.711Z,23.00
2023-06-11T06:56:02.730Z,22.95
2023-06-11T06:57:02.801Z,23.01
2023-06-11T06:58:02.788Z,23.05
2023-06-11T06:59:02.826Z,23.15
2023-06-11T07:00:02.827Z,23.23
2023-06-11T07:01:02.867Z,23.31
2023-06-11T07:02:02.833Z,23.41
2023-06-11T07:03:02.937Z,23.48
2023-06-11T07:04:02.964Z,23.41
2023-06-11T07:05:03.010Z,23.38
2023-06-11T07:06:03.098Z,23.28
2023-06-11T07:07:03.124Z,23.35
2023-06-11T07:08:03.090Z,23.41
2023-06-11T07:09:03.120Z,23.45
2023-06-11T07:10:03.202Z,23.44
2023-06-11T07:11:03.229Z,23.49
2023-06-11T07:12:03.277Z,23.46
2023-06-11T07:13:03.315Z,23.52
2023-06-11T07:14:03.372Z,23.48
2023-06-11T07:15:03.415Z,23.45
2023-06-11T07:16:03.468Z,23.51
2023-06-11T07:17:03.453Z,23.55
2023-06-11T07:18:03.555Z,23.58
2023-06-11T07:19:03.525Z,23.59
2023-06-11T07:20:03.665Z,23.68
2023-06-11T07:21:03.620Z,23.69
2023-06-11T07:22:03.629Z,23.76
2023-06-11T07:23:03.620Z,23.82
2023-06-11T07:24:03.736Z,23.84
2023-06-11T07:25:03.747Z,23.84
2023-06-11T07:26:03.874Z,23.86
2023-06-11T07:27:03.782Z,23.80
2023-06-11T07:28:03.775Z,23.84
2023-06-11T07:29:03.824Z,23.92
2023-06-11T07:30:03.846Z,23.92
2023-06-11T07:31:03.961Z,23.90
2023-06-11T07:32:03.891Z,23.96
2023-06-11T07:33:03.951Z,23.97
2023-06-11T07:34:03.930Z,23.97
2023-06-11T07:35:03.970Z,23.99
2023-06-11T07:36:04.023Z,23.96
2023-06-11T07:37:04.075Z,23.97
2023-06-11T07:38:04.066Z,23.99
2023-06-11T07:39:04.061Z,23.95
2023-06-11T07:40:04.167Z,23.92
2023-06-11T07:41:04.172Z,23.93
2023-06-11T07:42:04.182Z,23.93
2023-06-11T07:43:04.203Z,23.90
2023-06-11T07:44:04.233Z,23.93
2023-06-11T07:45:04.250Z,23.96
2023-06-11T07:46:04.417Z,23.97
2023-06-11T07:47:04.440Z,24.03
2023-06-11T07:48:04.404Z,24.09
2023-06-11T07:49:04.394Z,24.02
2023-06-11T07:50:04.383Z,24.04
2023-06-11T07:51:04.394Z,23.96
2023-06-11T07:52:04.466Z,23.92
2023-06-11T07:53:04.557Z,23.86
2023-06-11T07:54:04.527Z,23.62
2023-06-11T07:55:04.521Z,23.56
2023-06-11T07:56:04.558Z,23.63
2023-06-11T07:57:04.573Z,23.62
2023-06-11T07:58:04.595Z,23.68
2023-06-11T07:59:04.587Z,23.75
2023-06-11T08:00:04.672Z,23.77
2023-06-11T08:01:04.722Z,23.84
2023-06-11T08:02:04.774Z,23.93
2023-06-11T08:03:04.866Z,23.99
2023-06-11T08:04:04.858Z,24.04
2023-06-11T08:05:04.890Z,24.12
2023-06-11T08:06:04.949Z,24.14
2023-06-11T08:07:04.874Z,24.19
2023-06-11T08:08:04.921Z,24.20
2023-06-11T08:09:04.963Z,24.17
2023-06-11T08:10:05.037Z,24.21
2023-06-11T08:11:05.117Z,24.24
2023-06-11T08:12:05.147Z,24.36
2023-06-11T08:13:05.171Z,24.44
2023-06-11T08:14:05.306Z,24.43
2023-06-11T08:15:05.244Z,24.46
2023-06-11T08:16:05.326Z,24.47
2023-06-11T08:17:05.492Z,24.50
2023-06-11T08:18:05.509Z,24.40
2023-06-11T08:19:05.434Z,24.46
2023-06-11T08:20:05.506Z,24.48
2023-06-11T08:21:05.515Z,24.46
2023-06-11T08:22:05.548Z,24.48
2023-06-11T08:23:05.533Z,24.53
2023-06-11T08:24:05.629Z,24.56
2023-06-11T08:25:05.626Z,24.61
2023-06-11T08:26:05.646Z,24.60
2023-06-11T08:27:05.679Z,24.58
2023-06-11T08:28:05.728Z,24.64
2023-06-11T08:29:05.728Z,24.64
2023-06-11T08:30:05.792Z,24.65
2023-06-11T08:31:05.808Z,24.70
2023-06-11T08:32:05.897Z,24.67
2023-06-11T08:33:05.856Z,24.70
2023-06-11T08:34:05.881Z,24.77
2023-06-11T08:35:05.896Z,24.84
2023-06-11T08:36:05.933Z,24.87
2023-06-11T08:37:05.950Z,24.97
2023-06-11T08:38:05.948Z,24.99
2023-06-11T08:39:05.948Z,25.05
2023-06-11T08:40:05.936Z,25.17
2023-06-11T08:41:06.002Z,25.18
2023-06-11T08:42:05.957Z,25.09
2023-06-11T08:43:05.982Z,25.22
2023-06-11T08:44:06.010Z,25.23
2023-06-11T08:45:06.024Z,25.17
2023-06-11T08:46:06.076Z,25.23
2023-06-11T08:47:06.065Z,25.15
2023-06-11T08:48:06.110Z,25.23
2023-06-11T08:49:06.048Z,25.26
2023-06-11T08:50:06.098Z,25.29
2023-06-11T08:51:06.123Z,25.36
2023-06-11T08:52:06.200Z,25.35
2023-06-11T08:53:06.191Z,25.39
2023-06-11T08:54:06.252Z,25.39
2023-06-11T08:55:06.297Z,25.43
2023-06-11T08:56:06.278Z,25.42
2023-06-11T08:57:06.272Z,25.39
2023-06-11T08:58:06.288Z,25.42
2023-06-11T08:59:06.290Z,25.49
2023-06-11T09:00:09.367Z,25.58
2023-06-11T09:01:06.318Z,25.62
2023-06-11T09:02:06.344Z,25.72
2023-06-11T09:03:06.345Z,25.69
2023-06-11T09:04:06.372Z,25.73
2023-06-11T09:05:06.320Z,25.72
2023-06-11T09:06:06.234Z,25.66
2023-06-11T09:07:06.271Z,25.70
2023-06-11T09:08:06.245Z,25.63
2023-06-11T09:09:06.255Z,25.68
2023-06-11T09:10:06.274Z,25.68
2023-06-11T09:11:06.214Z,25.77
2023-06-11T09:12:06.229Z,25.79
2023-06-11T09:13:06.177Z,25.82
2023-06-11T09:14:06.190Z,25.79
2023-06-11T09:15:06.193Z,25.80
2023-06-11T09:16:06.265Z,25.90
2023-06-11T09:17:06.193Z,25.99
2023-06-11T09:18:09.650Z,26.07
2023-06-11T09:19:07.203Z,26.08
2023-06-11T09:20:06.153Z,26.13
2023-06-11T09:21:06.181Z,26.10
2023-06-11T09:22:06.148Z,26.13
2023-06-11T09:23:06.147Z,26.13
2023-06-11T09:24:06.161Z,26.10
2023-06-11T09:25:06.105Z,26.10
2023-06-11T09:26:06.117Z,26.16
2023-06-11T09:27:06.090Z,26.08
2023-06-11T09:28:06.078Z,26.14
2023-06-11T09:29:06.118Z,26.24
2023-06-11T09:30:06.076Z,26.28
2023-06-11T09:31:06.096Z,26.40
2023-06-11T09:32:15.933Z,26.47
2023-06-11T09:33:07.148Z,26.52
2023-06-11T09:34:06.049Z,26.48
2023-06-11T09:35:06.051Z,26.51
2023-06-11T09:36:06.068Z,26.48
2023-06-11T09:37:06.065Z,26.56
2023-06-11T09:38:06.024Z,26.58
2023-06-11T09:39:05.994Z,26.50
2023-06-11T09:40:06.020Z,26.43
2023-06-11T09:41:06.028Z,26.50
2023-06-11T09:42:06.066Z,26.61
2023-06-11T09:43:06.208Z,26.65
2023-06-11T09:44:06.193Z,26.62
2023-06-11T09:45:06.257Z,26.65
2023-06-11T09:46:06.370Z,26.64
2023-06-11T09:47:08.228Z,26.65
2023-06-11T09:48:06.473Z,26.59
2023-06-11T09:49:06.326Z,26.55
2023-06-11T09:50:06.378Z,26.50
2023-06-11T09:51:06.376Z,26.54
2023-06-11T09:52:06.352Z,26.64
2023-06-11T09:53:06.355Z,26.71
2023-06-11T09:54:06.317Z,26.77
2023-06-11T09:55:06.345Z,26.71
2023-06-11T09:56:11.556Z,26.78
2023-06-11T09:57:07.302Z,26.70
2023-06-11T09:58:06.316Z,26.65
2023-06-11T09:59:06.348Z,26.75
2023-06-11T10:00:06.246Z,26.78
2023-06-11T10:01:07.695Z,26.88
2023-06-11T10:02:06.268Z,26.96
2023-06-11T10:03:06.372Z,26.95
2023-06-11T10:04:06.250Z,27.08
2023-06-11T10:05:06.271Z,27.06
2023-06-11T10:06:06.248Z,26.92
2023-06-11T10:07:06.230Z,26.96
2023-06-11T10:08:06.297Z,27.01
2023-06-11T10:09:06.238Z,27.05
2023-06-11T10:10:06.196Z,27.10
2023-06-11T10:11:06.252Z,27.15
2023-06-11T10:12:06.222Z,27.09
2023-06-11T10:13:06.150Z,27.21
2023-06-11T10:14:06.201Z,27.30
2023-06-11T10:15:06.240Z,27.37
2023-06-11T10:16:06.321Z,27.47
2023-06-11T10:17:06.351Z,27.42
2023-06-11T10:18:06.467Z,27.28
2023-06-11T10:19:06.431Z,27.22
2023-06-11T10:20:06.493Z,27.25
2023-06-11T10:21:06.577Z,27.21
2023-06-11T10:22:06.582Z,27.22
2023-06-11T10:23:07.752Z,26.96
2023-06-11T10:24:06.633Z,26.88
2023-06-11T10:25:06.608Z,26.92
2023-06-11T10:26:06.663Z,26.81
2023-06-11T10:27:06.765Z,26.86
2023-06-11T10:28:06.590Z,26.84
2023-06-11T10:29:07.313Z,26.84
2023-06-11T10:30:06.733Z,26.86
2023-06-11T10:31:06.760Z,26.84
2023-06-11T10:32:06.784Z,26.88
2023-06-11T10:33:07.019Z,26.79
2023-06-11T10:34:06.973Z,26.71
2023-06-11T10:35:07.054Z,26.71
2023-06-11T10:36:07.031Z,26.51
2023-06-11T10:37:07.077Z,26.64
2023-06-11T10:38:07.124Z,26.72
2023-06-11T10:39:07.651Z,26.81
2023-06-11T10:40:07.278Z,26.94
2023-06-11T10:41:07.271Z,27.05
2023-06-11T10:42:07.231Z,27.10
2023-06-11T10:43:07.328Z,27.15
2023-06-11T10:44:07.296Z,27.25
2023-06-11T10:45:07.308Z,27.25
2023-06-11T10:46:07.321Z,27.32
2023-06-11T10:47:07.397Z,27.36
2023-06-11T10:48:07.535Z,27.26
2023-06-11T10:49:07.445Z,27.29
2023-06-11T10:50:07.604Z,27.32
2023-06-11T10:51:07.604Z,27.46
2023-06-11T10:52:07.654Z,27.52
2023-06-11T10:53:07.710Z,27.49
2023-06-11T10:54:07.732Z,27.47
2023-06-11T10:55:07.913Z,27.36
2023-06-11T10:56:07.815Z,27.42
2023-06-11T10:57:07.857Z,27.49
2023-06-11T10:58:07.884Z,27.61
2023-06-11T10:59:07.973Z,27.67
2023-06-11T11:00:08.007Z,27.79
2023-06-11T11:01:07.978Z,27.81
2023-06-11T11:02:08.053Z,27.71
2023-06-11T11:03:08.077Z,27.79
2023-06-11T11:04:08.097Z,27.89
2023-06-11T11:05:08.158Z,27.98
2023-06-11T11:06:08.156Z,27.83
2023-06-11T11:07:08.221Z,27.74
2023-06-11T11:08:08.226Z,27.81
2023-06-11T11:09:08.250Z,27.80
2023-06-11T11:10:08.257Z,27.63
2023-06-11T11:11:08.300Z,27.45
2023-06-11T11:12:08.264Z,27.47
2023-06-11T11:13:08.269Z,27.49
2023-06-11T11:14:08.271Z,27.59
2023-06-11T11:15:08.437Z,27.70
2023-06-11T11:16:08.374Z,27.83
2023-06-11T11:17:08.413Z,27.91
2023-06-11T11:18:08.372Z,28.03
2023-06-11T11:19:08.356Z,28.14
2023-06-11T11:20:08.410Z,28.17
2023-06-11T11:21:08.466Z,28.10
2023-06-11T11:22:08.531Z,28.07
2023-06-11T11:23:08.598Z,28.17
2023-06-11T11:24:08.665Z,28.11
2023-06-11T11:25:08.884Z,28.10
2023-06-11T11:26:08.676Z,28.11
2023-06-11T11:27:08.701Z,28.05
2023-06-11T11:28:08.679Z,28.07
2023-06-11T11:29:08.687Z,28.04
2023-06-11T11:30:08.822Z,28.03
2023-06-11T11:31:08.738Z,28.04
2023-06-11T11:32:08.795Z,28.07
2023-06-11T11:33:08.910Z,28.04
2023-06-11T11:34:08.909Z,28.04
2023-06-11T11:35:08.921Z,28.04
2023-06-11T11:36:09.046Z,28.04
2023-06-11T11:37:09.047Z,28.05
2023-06-11T11:38:09.167Z,27.98
2023-06-11T11:39:09.057Z,27.96
2023-06-11T11:40:09.157Z,27.89
2023-06-11T11:41:09.170Z,27.87
2023-06-11T11:42:09.152Z,27.83
2023-06-11T11:43:09.199Z,27.80
2023-06-11T11:44:09.191Z,27.74
2023-06-11T11:45:09.144Z,27.90
2023-06-11T11:46:09.226Z,28.03
2023-06-11T11:47:09.255Z,28.12
2023-06-11T11:48:09.605Z,28.21
2023-06-11T11:49:09.335Z,28.30
2023-06-11T11:50:09.553Z,28.40
2023-06-11T11:51:09.453Z,28.44
2023-06-11T11:52:09.441Z,28.47
2023-06-11T11:53:09.448Z,28.56
2023-06-11T11:54:09.519Z,28.63
2023-06-11T11:55:09.578Z,28.66
2023-06-11T11:56:09.597Z,28.71
2023-06-11T11:57:09.587Z,28.73
2023-06-11T11:58:09.570Z,28.75
2023-06-11T11:59:09.599Z,28.71
2023-06-11T12:00:09.894Z,28.69
2023-06-11T12:01:09.621Z,28.66
2023-06-11T12:02:09.714Z,28.63
2023-06-11T12:03:09.824Z,28.55
2023-06-11T12:04:09.765Z,28.58
2023-06-11T12:05:09.836Z,28.55
2023-06-11T12:06:10.010Z,28.50
2023-06-11T12:07:09.921Z,28.50
2023-06-11T12:08:09.972Z,28.48
2023-06-11T12:09:10.007Z,28.44
2023-06-11T12:10:10.365Z,28.38
2023-06-11T12:11:10.498Z,28.41
2023-06-11T12:12:10.170Z,28.45
2023-06-11T12:13:10.215Z,28.41
2023-06-11T12:14:10.215Z,28.38
2023-06-11T12:15:10.205Z,28.37
2023-06-11T12:16:10.318Z,28.42
2023-06-11T12:17:10.280Z,28.48
2023-06-11T12:18:10.284Z,28.61
2023-06-11T12:19:22.709Z,28.52
2023-06-11T12:20:11.573Z,28.56
2023-06-11T12:21:10.291Z,28.48
2023-06-11T12:22:10.356Z,28.50
2023-06-11T12:23:10.323Z,28.50
2023-06-11T12:24:10.398Z,28.68
2023-06-11T12:25:10.374Z,28.81
2023-06-11T12:26:10.300Z,28.93
2023-06-11T12:27:13.010Z,28.91
2023-06-11T12:28:10.306Z,28.98
2023-06-11T12:29:10.247Z,28.96
2023-06-11T12:30:10.486Z,29.12
2023-06-11T12:31:10.264Z,29.24
2023-06-11T12:32:10.259Z,29.17
2023-06-11T12:33:10.328Z,29.17
2023-06-11T12:34:10.224Z,29.26
2023-06-11T12:35:10.206Z,29.32
2023-06-11T12:36:10.206Z,29.27
2023-06-11T12:37:10.208Z,29.42
2023-06-11T12:38:10.212Z,29.47
2023-06-11T12:39:10.190Z,29.44
2023-06-11T12:40:10.537Z,29.53
2023-06-11T12:41:10.190Z,29.49
2023-06-11T12:42:10.200Z,29.27
2023-06-11T12:43:10.196Z,29.29
2023-06-11T12:44:10.160Z,29.30
2023-06-11T12:45:10.160Z,29.24
2023-06-11T12:46:10.193Z,29.24
2023-06-11T12:47:10.115Z,29.22
2023-06-11T12:48:10.224Z,29.03
2023-06-11T12:49:10.151Z,28.96
2023-06-11T12:50:10.614Z,28.88
2023-06-11T12:51:10.145Z,28.82
2023-06-11T12:52:10.095Z,28.81
2023-06-11T12:53:10.098Z,28.72